PWSweather.com
Personal Weather Stations
Station Observations
SBERGENWX
Wood Ridge, NJ 07075

Wood Ridge, NJ 07075

Lat: 40.851667, Lon: -74.088131

Elevation: 177

Station Type: Davis Vantage Vue

http://201weather.com/

High Low Average
Temperature 29.0°F-1.7°C 10.3°F-12.1°C 19.8°F-6.8°C
Dew Point 10.8°F-11.8°C 0.4°F-17.6°C 4.3°F-15.4°C
Winds 6.9 mph 11.1 kmh Calm Calm 1.0 mph WSW1.6 kmh WSW
Wind Gusts 12.7 mph20.4 kmh -- 2.0 mph3.2 kmh
Humidity 67% 34% 52%
Pressure 30.66 in1038.3 mb 30.40 in1029.5 mb -
Precipitation 0.00 in0.0 mm - -
Hour Temp Dew Point Humidity Winds Wind Gusts Pressure Precip Precip Rate Daily Precip Total
12:00 AM 10.3°F-12.1°C -0.2°F-17.9°C 62% Calm Calm 4.6 mph7.4 kmh 30.39 in1029.1 mb - 0.00 in0.0 mm 0.00 in0.0 mm
12:15 AM 10.4°F-12.0°C -0.1°F-17.8°C 62% 1.2 mph NW1.9 kmh NW 3.5 mph5.6 kmh 30.39 in1029.1 mb - 0.00 in0.0 mm 0.00 in0.0 mm
12:30 AM 10.6°F-11.9°C 0.2°F-17.7°C 62% Calm Calm 4.6 mph7.4 kmh 30.39 in1029.1 mb - 0.00 in0.0 mm 0.00 in0.0 mm
12:45 AM 10.8°F-11.8°C 0.3°F-17.6°C 62% 2.3 mph NW3.7 kmh NW 9.2 mph14.8 kmh 30.40 in1029.5 mb - 0.00 in0.0 mm 0.00 in0.0 mm
01:00 AM 10.9°F-11.7°C 0.4°F-17.6°C 62% Calm Calm 4.6 mph7.4 kmh 30.41 in1029.8 mb - 0.00 in0.0 mm 0.00 in0.0 mm
01:15 AM 10.9°F-11.7°C 0.4°F-17.6°C 62% Calm Calm 12.7 mph20.4 kmh 30.40 in1029.5 mb - 0.00 in0.0 mm 0.00 in0.0 mm
01:30 AM 10.9°F-11.7°C 0.8°F-17.3°C 63% 3.5 mph NNW5.6 kmh NNW 3.5 mph5.6 kmh 30.40 in1029.5 mb - 0.00 in0.0 mm 0.00 in0.0 mm
01:45 AM 11.0°F-11.7°C 0.9°F-17.3°C 63% Calm Calm 6.9 mph11.1 kmh 30.40 in1029.5 mb - 0.00 in0.0 mm 0.00 in0.0 mm
02:00 AM 10.8°F-11.8°C 1.0°F-17.2°C 64% Calm Calm -- 30.41 in1029.8 mb - 0.00 in0.0 mm 0.00 in0.0 mm
02:15 AM 10.6°F-11.9°C 1.1°F-17.2°C 65% Calm Calm 2.3 mph3.7 kmh 30.42 in1030.1 mb - 0.00 in0.0 mm 0.00 in0.0 mm
02:30 AM 10.5°F-11.9°C 1.4°F-17.0°C 66% 1.2 mph NW1.9 kmh NW 1.2 mph1.9 kmh 30.43 in1030.5 mb - 0.00 in0.0 mm 0.00 in0.0 mm
02:45 AM 10.3°F-12.1°C 1.5°F-16.9°C 67% 1.2 mph NW1.9 kmh NW 4.6 mph7.4 kmh 30.44 in1030.8 mb - 0.00 in0.0 mm 0.00 in0.0 mm
03:00 AM 10.5°F-11.9°C 1.7°F-16.8°C 67% 2.3 mph W3.7 kmh W 5.8 mph9.3 kmh 30.44 in1030.8 mb - 0.00 in0.0 mm 0.00 in0.0 mm
03:15 AM 10.6°F-11.9°C 1.8°F-16.8°C 67% 2.3 mph NW3.7 kmh NW 8.1 mph13.0 kmh 30.44 in1030.8 mb - 0.00 in0.0 mm 0.00 in0.0 mm
03:30 AM 10.8°F-11.8°C 2.0°F-16.7°C 67% Calm Calm 3.5 mph5.6 kmh 30.45 in1031.2 mb - 0.00 in0.0 mm 0.00 in0.0 mm
03:45 AM 11.0°F-11.7°C 2.2°F-16.6°C 67% Calm Calm 2.3 mph3.7 kmh 30.46 in1031.5 mb - 0.00 in0.0 mm 0.00 in0.0 mm
04:00 AM 11.2°F-11.6°C 2.0°F-16.7°C 66% Calm Calm -- 30.46 in1031.5 mb - 0.00 in0.0 mm 0.00 in0.0 mm
04:15 AM 11.3°F-11.5°C 2.1°F-16.6°C 66% Calm Calm 2.3 mph3.7 kmh 30.46 in1031.5 mb - 0.00 in0.0 mm 0.00 in0.0 mm
04:30 AM 11.7°F-11.3°C 1.9°F-16.7°C 64% 2.3 mph WNW3.7 kmh WNW 9.2 mph14.8 kmh 30.47 in1031.8 mb - 0.00 in0.0 mm 0.00 in0.0 mm
04:45 AM 11.9°F-11.2°C 1.7°F-16.8°C 63% 1.2 mph W1.9 kmh W 3.5 mph5.6 kmh 30.48 in1032.2 mb - 0.00 in0.0 mm 0.00 in0.0 mm
05:00 AM 11.9°F-11.2°C 1.7°F-16.8°C 63% Calm Calm -- 30.49 in1032.5 mb - 0.00 in0.0 mm 0.00 in0.0 mm
05:15 AM 11.7°F-11.3°C 1.9°F-16.7°C 64% Calm Calm 1.2 mph1.9 kmh 30.50 in1032.8 mb - 0.00 in0.0 mm 0.00 in0.0 mm
05:30 AM 11.6°F-11.3°C 2.1°F-16.6°C 65% 3.5 mph W5.6 kmh W 9.2 mph14.8 kmh 30.50 in1032.8 mb - 0.00 in0.0 mm 0.00 in0.0 mm
05:45 AM 11.6°F-11.3°C 2.1°F-16.6°C 65% 1.2 mph W1.9 kmh W 2.3 mph3.7 kmh 30.52 in1033.5 mb - 0.00 in0.0 mm 0.00 in0.0 mm
06:00 AM 11.7°F-11.3°C 2.2°F-16.6°C 65% Calm Calm 2.3 mph3.7 kmh 30.54 in1034.2 mb - 0.00 in0.0 mm 0.00 in0.0 mm
06:15 AM 11.8°F-11.2°C 2.0°F-16.7°C 64% 2.3 mph WNW3.7 kmh WNW 10.4 mph16.7 kmh 30.55 in1034.5 mb - 0.00 in0.0 mm 0.00 in0.0 mm
06:30 AM 11.8°F-11.2°C 2.0°F-16.7°C 64% 2.3 mph WNW3.7 kmh WNW 3.5 mph5.6 kmh 30.57 in1035.2 mb - 0.00 in0.0 mm 0.00 in0.0 mm
06:45 AM 11.7°F-11.3°C 2.2°F-16.6°C 65% 6.9 mph W11.1 kmh W 10.4 mph16.7 kmh 30.59 in1035.9 mb - 0.00 in0.0 mm 0.00 in0.0 mm
07:00 AM 11.6°F-11.3°C 2.1°F-16.6°C 65% Calm Calm -- 30.59 in1035.9 mb - 0.00 in0.0 mm 0.00 in0.0 mm
07:15 AM 11.4°F-11.4°C 2.2°F-16.6°C 66% 1.2 mph WNW1.9 kmh WNW 3.5 mph5.6 kmh 30.60 in1036.2 mb - 0.00 in0.0 mm 0.00 in0.0 mm
07:30 AM 11.1°F-11.6°C 1.9°F-16.7°C 66% Calm Calm 3.5 mph5.6 kmh 30.60 in1036.2 mb - 0.00 in0.0 mm 0.00 in0.0 mm
07:45 AM 11.0°F-11.7°C 1.8°F-16.8°C 66% Calm Calm -- 30.60 in1036.2 mb - 0.00 in0.0 mm 0.00 in0.0 mm
08:00 AM 11.0°F-11.7°C 1.9°F-16.7°C 66% 2.3 mph WNW3.7 kmh WNW 5.8 mph9.3 kmh 30.61 in1036.6 mb - 0.00 in0.0 mm 0.00 in0.0 mm
08:15 AM 11.1°F-11.6°C 2.0°F-16.7°C 66% 4.6 mph W7.4 kmh W 9.2 mph14.8 kmh 30.61 in1036.6 mb - 0.00 in0.0 mm 0.00 in0.0 mm
08:30 AM 11.2°F-11.6°C 2.4°F-16.4°C 67% Calm Calm 1.2 mph1.9 kmh 30.61 in1036.6 mb - 0.00 in0.0 mm 0.00 in0.0 mm
08:45 AM 11.4°F-11.4°C 2.2°F-16.6°C 66% 1.2 mph WNW1.9 kmh WNW 4.6 mph7.4 kmh 30.62 in1036.9 mb - 0.00 in0.0 mm 0.00 in0.0 mm
09:00 AM 11.9°F-11.2°C 2.4°F-16.4°C 65% Calm Calm 1.2 mph1.9 kmh 30.63 in1037.3 mb - 0.00 in0.0 mm 0.00 in0.0 mm
09:15 AM 12.4°F-10.9°C 2.5°F-16.4°C 64% 1.2 mph WNW1.9 kmh WNW 4.6 mph7.4 kmh 30.63 in1037.3 mb - 0.00 in0.0 mm 0.00 in0.0 mm
09:30 AM 13.0°F-10.6°C 2.8°F-16.2°C 63% Calm Calm 1.2 mph1.9 kmh 30.64 in1037.6 mb - 0.00 in0.0 mm 0.00 in0.0 mm
09:45 AM 13.8°F-10.1°C 2.8°F-16.2°C 61% 1.2 mph WNW1.9 kmh WNW 3.5 mph5.6 kmh 30.64 in1037.6 mb - 0.00 in0.0 mm 0.00 in0.0 mm
10:00 AM 14.5°F-9.7°C 2.8°F-16.2°C 59% 1.2 mph WNW1.9 kmh WNW 3.5 mph5.6 kmh 30.63 in1037.3 mb - 0.00 in0.0 mm 0.00 in0.0 mm
10:15 AM 15.6°F-9.1°C 2.7°F-16.3°C 56% 1.2 mph NW1.9 kmh NW 1.2 mph1.9 kmh 30.64 in1037.6 mb - 0.00 in0.0 mm 0.00 in0.0 mm
10:30 AM 16.2°F-8.8°C 2.5°F-16.4°C 54% Calm Calm 2.3 mph3.7 kmh 30.65 in1037.9 mb - 0.00 in0.0 mm 0.00 in0.0 mm
10:45 AM 17.0°F-8.3°C 2.4°F-16.4°C 52% 1.2 mph NW1.9 kmh NW 3.5 mph5.6 kmh 30.65 in1037.9 mb - 0.00 in0.0 mm 0.00 in0.0 mm
11:00 AM 17.7°F-7.9°C 2.2°F-16.6°C 50% Calm Calm -- 30.66 in1038.3 mb - 0.00 in0.0 mm 0.00 in0.0 mm
11:15 AM 18.9°F-7.3°C 2.4°F-16.4°C 48% 1.2 mph NNE1.9 kmh NNE 1.2 mph1.9 kmh 30.66 in1038.3 mb - 0.00 in0.0 mm 0.00 in0.0 mm
11:30 AM 19.2°F-7.1°C 1.7°F-16.8°C 46% 1.2 mph W1.9 kmh W 2.3 mph3.7 kmh 30.66 in1038.3 mb - 0.00 in0.0 mm 0.00 in0.0 mm
11:45 AM 19.7°F-6.8°C 2.2°F-16.6°C 46% 1.2 mph W1.9 kmh W 3.5 mph5.6 kmh 30.66 in1038.3 mb - 0.00 in0.0 mm 0.00 in0.0 mm
12:00 PM 19.7°F-6.8°C 1.8°F-16.8°C 45% Calm Calm -- 30.65 in1037.9 mb - 0.00 in0.0 mm 0.00 in0.0 mm
12:15 PM 21.0°F-6.1°C 3.0°F-16.1°C 45% Calm Calm 1.2 mph1.9 kmh 30.65 in1037.9 mb - 0.00 in0.0 mm 0.00 in0.0 mm
12:30 PM 21.6°F-5.8°C 2.5°F-16.4°C 43% Calm Calm 1.2 mph1.9 kmh 30.65 in1037.9 mb - 0.00 in0.0 mm 0.00 in0.0 mm
12:45 PM 22.4°F-5.3°C 2.2°F-16.6°C 41% 1.2 mph W1.9 kmh W 3.5 mph5.6 kmh 30.65 in1037.9 mb - 0.00 in0.0 mm 0.00 in0.0 mm
01:00 PM 22.8°F-5.1°C 3.1°F-16.1°C 42% Calm Calm 2.3 mph3.7 kmh 30.65 in1037.9 mb - 0.00 in0.0 mm 0.00 in0.0 mm
01:15 PM 23.3°F-4.8°C 2.5°F-16.4°C 40% 1.2 mph WNW1.9 kmh WNW 3.5 mph5.6 kmh 30.64 in1037.6 mb - 0.00 in0.0 mm 0.00 in0.0 mm
01:30 PM 24.2°F-4.3°C 2.8°F-16.2°C 39% 1.2 mph WNW1.9 kmh WNW 3.5 mph5.6 kmh 30.64 in1037.6 mb - 0.00 in0.0 mm 0.00 in0.0 mm
01:45 PM 24.8°F-4.0°C 2.7°F-16.3°C 38% 1.2 mph W1.9 kmh W 4.6 mph7.4 kmh 30.63 in1037.3 mb - 0.00 in0.0 mm 0.00 in0.0 mm
02:00 PM 25.4°F-3.7°C 3.3°F-15.9°C 38% 1.2 mph NW1.9 kmh NW 3.5 mph5.6 kmh 30.63 in1037.3 mb - 0.00 in0.0 mm 0.00 in0.0 mm
02:15 PM 25.9°F-3.4°C 3.2°F-16.0°C 37% Calm Calm 1.2 mph1.9 kmh 30.63 in1037.3 mb - 0.00 in0.0 mm 0.00 in0.0 mm
02:30 PM 26.9°F-2.8°C 4.0°F-15.6°C 37% Calm Calm 1.2 mph1.9 kmh 30.62 in1036.9 mb - 0.00 in0.0 mm 0.00 in0.0 mm
02:45 PM 27.2°F-2.7°C 4.3°F-15.4°C 37% 1.2 mph WNW1.9 kmh WNW 3.5 mph5.6 kmh 30.61 in1036.6 mb - 0.00 in0.0 mm 0.00 in0.0 mm
03:00 PM 26.9°F-2.8°C 4.7°F-15.2°C 38% Calm Calm 1.2 mph1.9 kmh 30.62 in1036.9 mb - 0.00 in0.0 mm 0.00 in0.0 mm
03:15 PM 27.5°F-2.5°C 4.6°F-15.2°C 37% 1.2 mph W1.9 kmh W 1.2 mph1.9 kmh 30.61 in1036.6 mb - 0.00 in0.0 mm 0.00 in0.0 mm
03:30 PM 28.2°F-2.1°C 4.6°F-15.2°C 36% 1.2 mph W1.9 kmh W 3.5 mph5.6 kmh 30.61 in1036.6 mb - 0.00 in0.0 mm 0.00 in0.0 mm
03:45 PM 28.5°F-1.9°C 3.7°F-15.7°C 34% 1.2 mph NNW1.9 kmh NNW 2.3 mph3.7 kmh 30.62 in1036.9 mb - 0.00 in0.0 mm 0.00 in0.0 mm
04:00 PM 28.8°F-1.8°C 5.2°F-14.9°C 36% Calm Calm -- 30.60 in1036.2 mb - 0.00 in0.0 mm 0.00 in0.0 mm
04:15 PM 29.0°F-1.7°C 4.1°F-15.5°C 34% Calm Calm -- 30.60 in1036.2 mb - 0.00 in0.0 mm 0.00 in0.0 mm
04:30 PM 28.9°F-1.7°C 4.6°F-15.2°C 35% Calm Calm 1.2 mph1.9 kmh 30.61 in1036.6 mb - 0.00 in0.0 mm 0.00 in0.0 mm
04:45 PM 28.3°F-2.1°C 3.5°F-15.8°C 34% 1.2 mph N1.9 kmh N 2.3 mph3.7 kmh 30.61 in1036.6 mb - 0.00 in0.0 mm 0.00 in0.0 mm
05:00 PM 28.2°F-2.1°C 3.4°F-15.9°C 34% Calm Calm -- 30.61 in1036.6 mb - 0.00 in0.0 mm 0.00 in0.0 mm
05:15 PM 28.2°F-2.1°C 4.6°F-15.2°C 36% Calm Calm -- 30.62 in1036.9 mb - 0.00 in0.0 mm 0.00 in0.0 mm
05:30 PM 28.0°F-2.2°C 5.7°F-14.6°C 38% Calm Calm -- 30.61 in1036.6 mb - 0.00 in0.0 mm 0.00 in0.0 mm
05:45 PM 27.8°F-2.3°C 5.4°F-14.8°C 38% Calm Calm -- 30.61 in1036.6 mb - 0.00 in0.0 mm 0.00 in0.0 mm
06:00 PM 27.6°F-2.4°C 4.7°F-15.2°C 37% Calm Calm -- 30.59 in1035.9 mb - 0.00 in0.0 mm 0.00 in0.0 mm
06:15 PM 27.3°F-2.6°C 5.0°F-15.0°C 38% Calm Calm -- 30.59 in1035.9 mb - 0.00 in0.0 mm 0.00 in0.0 mm
06:30 PM 26.9°F-2.8°C 5.2°F-14.9°C 39% Calm Calm -- 30.59 in1035.9 mb - 0.00 in0.0 mm 0.00 in0.0 mm
06:45 PM 26.6°F-3.0°C 5.5°F-14.7°C 40% Calm Calm -- 30.60 in1036.2 mb - 0.00 in0.0 mm 0.00 in0.0 mm
07:00 PM 26.5°F-3.1°C 5.4°F-14.8°C 40% Calm Calm -- 30.61 in1036.6 mb - 0.00 in0.0 mm 0.00 in0.0 mm
07:15 PM 26.3°F-3.2°C 5.7°F-14.6°C 41% Calm Calm -- 30.62 in1036.9 mb - 0.00 in0.0 mm 0.00 in0.0 mm
07:30 PM 25.8°F-3.4°C 5.8°F-14.6°C 42% Calm Calm -- 30.62 in1036.9 mb - 0.00 in0.0 mm 0.00 in0.0 mm
07:45 PM 25.8°F-3.4°C 5.8°F-14.6°C 42% Calm Calm -- 30.62 in1036.9 mb - 0.00 in0.0 mm 0.00 in0.0 mm
08:00 PM 26.0°F-3.3°C 6.0°F-14.4°C 42% Calm Calm -- 30.61 in1036.6 mb - 0.00 in0.0 mm 0.00 in0.0 mm
08:15 PM 26.0°F-3.3°C 7.6°F-13.6°C 45% Calm Calm -- 30.62 in1036.9 mb - 0.00 in0.0 mm 0.00 in0.0 mm
08:30 PM 25.8°F-3.4°C 8.8°F-12.9°C 48% Calm Calm -- 30.62 in1036.9 mb - 0.00 in0.0 mm 0.00 in0.0 mm
08:45 PM 25.7°F-3.5°C 9.2°F-12.7°C 49% Calm Calm -- 30.61 in1036.6 mb - 0.00 in0.0 mm 0.00 in0.0 mm
09:00 PM 25.7°F-3.5°C 9.6°F-12.4°C 50% Calm Calm -- 30.60 in1036.2 mb - 0.00 in0.0 mm 0.00 in0.0 mm
09:15 PM 25.8°F-3.4°C 9.7°F-12.4°C 50% Calm Calm -- 30.60 in1036.2 mb - 0.00 in0.0 mm 0.00 in0.0 mm
09:30 PM 25.5°F-3.6°C 10.3°F-12.1°C 52% Calm Calm -- 30.60 in1036.2 mb - 0.00 in0.0 mm 0.00 in0.0 mm
09:45 PM 25.6°F-3.6°C 10.4°F-12.0°C 52% Calm Calm -- 30.59 in1035.9 mb - 0.00 in0.0 mm 0.00 in0.0 mm
10:00 PM 25.6°F-3.6°C 10.8°F-11.8°C 53% Calm Calm 1.2 mph1.9 kmh 30.59 in1035.9 mb - 0.00 in0.0 mm 0.00 in0.0 mm
10:15 PM 25.7°F-3.5°C 10.5°F-11.9°C 52% Calm Calm -- 30.59 in1035.9 mb - 0.00 in0.0 mm 0.00 in0.0 mm
10:30 PM 25.7°F-3.5°C 10.5°F-11.9°C 52% Calm Calm -- 30.58 in1035.6 mb - 0.00 in0.0 mm 0.00 in0.0 mm
10:45 PM 25.7°F-3.5°C 10.0°F-12.2°C 51% Calm Calm 1.2 mph1.9 kmh 30.58 in1035.6 mb - 0.00 in0.0 mm 0.00 in0.0 mm
11:00 PM 25.7°F-3.5°C 10.0°F-12.2°C 51% Calm Calm 2.3 mph3.7 kmh 30.57 in1035.2 mb - 0.00 in0.0 mm 0.00 in0.0 mm
11:15 PM 25.7°F-3.5°C 10.1°F-12.2°C 51% Calm Calm 2.3 mph3.7 kmh 30.57 in1035.2 mb - 0.00 in0.0 mm 0.00 in0.0 mm
11:30 PM 25.9°F-3.4°C 10.2°F-12.1°C 51% Calm Calm 1.2 mph1.9 kmh 30.57 in1035.2 mb - 0.00 in0.0 mm 0.00 in0.0 mm
11:45 PM 25.9°F-3.4°C 10.2°F-12.1°C 51% Calm Calm 1.2 mph1.9 kmh 30.56 in1034.9 mb - 0.00 in0.0 mm 0.00 in0.0 mm